sensor_id;sensor_type;location;lat;lon;timestamp;temperature;humidity
67502;SHT30;54349;52.528;19.760;2022-07-23T00:00:34;22.17;55.12
67502;SHT30;54349;52.528;19.760;2022-07-23T00:03:06;22.32;55.24
67502;SHT30;54349;52.528;19.760;2022-07-23T00:05:34;22.50;54.95
67502;SHT30;54349;52.528;19.760;2022-07-23T00:08:04;22.66;55.17
67502;SHT30;54349;52.528;19.760;2022-07-23T00:10:38;22.62;55.51
67502;SHT30;54349;52.528;19.760;2022-07-23T00:13:06;22.49;55.36
67502;SHT30;54349;52.528;19.760;2022-07-23T00:15:34;22.35;55.05
67502;SHT30;54349;52.528;19.760;2022-07-23T00:18:03;22.19;54.46
67502;SHT30;54349;52.528;19.760;2022-07-23T00:20:31;22.15;55.34
67502;SHT30;54349;52.528;19.760;2022-07-23T00:22:59;22.30;55.31
67502;SHT30;54349;52.528;19.760;2022-07-23T00:25:27;22.48;55.10
67502;SHT30;54349;52.528;19.760;2022-07-23T00:27:58;22.64;55.23
67502;SHT30;54349;52.528;19.760;2022-07-23T00:30:28;22.60;55.53
67502;SHT30;54349;52.528;19.760;2022-07-23T00:32:59;22.45;55.46
67502;SHT30;54349;52.528;19.760;2022-07-23T00:35:31;22.31;55.13
67502;SHT30;54349;52.528;19.760;2022-07-23T00:38:08;22.16;54.61
67502;SHT30;54349;52.528;19.760;2022-07-23T00:40:38;22.16;55.40
67502;SHT30;54349;52.528;19.760;2022-07-23T00:43:07;22.32;55.31
67502;SHT30;54349;52.528;19.760;2022-07-23T00:45:35;22.50;55.14
67502;SHT30;54349;52.528;19.760;2022-07-23T00:48:04;22.62;55.37
67502;SHT30;54349;52.528;19.760;2022-07-23T00:50:32;22.53;55.56
67502;SHT30;54349;52.528;19.760;2022-07-23T00:53:01;22.37;55.44
67502;SHT30;54349;52.528;19.760;2022-07-23T00:55:29;22.23;55.06
67502;SHT30;54349;52.528;19.760;2022-07-23T00:57:58;22.15;55.58
67502;SHT30;54349;52.528;19.760;2022-07-23T01:00:27;22.27;55.74
67502;SHT30;54349;52.528;19.760;2022-07-23T01:02:56;22.45;55.57
67502;SHT30;54349;52.528;19.760;2022-07-23T01:05:24;22.61;55.44
67502;SHT30;54349;52.528;19.760;2022-07-23T01:07:52;22.61;55.56
67502;SHT30;54349;52.528;19.760;2022-07-23T01:10:23;22.47;55.43
67502;SHT30;54349;52.528;19.760;2022-07-23T01:13:06;22.31;55.19
67502;SHT30;54349;52.528;19.760;2022-07-23T01:15:37;22.15;55.24
67502;SHT30;54349;52.528;19.760;2022-07-23T01:18:07;22.22;55.76
67502;SHT30;54349;52.528;19.760;2022-07-23T01:20:37;22.39;55.59
67502;SHT30;54349;52.528;19.760;2022-07-23T01:23:07;22.55;55.21
67502;SHT30;54349;52.528;19.760;2022-07-23T01:25:37;22.56;54.92
67502;SHT30;54349;52.528;19.760;2022-07-23T01:28:06;22.40;55.05
67502;SHT30;54349;52.528;19.760;2022-07-23T01:30:34;22.23;54.77
67502;SHT30;54349;52.528;19.760;2022-07-23T01:33:05;22.16;55.54
67502;SHT30;54349;52.528;19.760;2022-07-23T01:35:33;22.31;55.54
67502;SHT30;54349;52.528;19.760;2022-07-23T01:38:05;22.48;55.42
67502;SHT30;54349;52.528;19.760;2022-07-23T01:40:34;22.62;55.34
67502;SHT30;54349;52.528;19.760;2022-07-23T01:43:02;22.56;55.24
67502;SHT30;54349;52.528;19.760;2022-07-23T01:45:31;22.38;55.06
67502;SHT30;54349;52.528;19.760;2022-07-23T01:48:00;22.23;54.88
67502;SHT30;54349;52.528;19.760;2022-07-23T01:50:29;22.22;55.54
67502;SHT30;54349;52.528;19.760;2022-07-23T01:53:11;22.38;55.42
67502;SHT30;54349;52.528;19.760;2022-07-23T01:55:40;22.53;55.27
67502;SHT30;54349;52.528;19.760;2022-07-23T01:58:10;22.61;55.32
67502;SHT30;54349;52.528;19.760;2022-07-23T02:00:38;22.49;55.12
67502;SHT30;54349;52.528;19.760;2022-07-23T02:03:07;22.32;54.96
67502;SHT30;54349;52.528;19.760;2022-07-23T02:05:37;22.18;54.91
67502;SHT30;54349;52.528;19.760;2022-07-23T02:08:05;22.24;55.50
67502;SHT30;54349;52.528;19.760;2022-07-23T02:10:35;22.40;55.35
67502;SHT30;54349;52.528;19.760;2022-07-23T02:13:03;22.55;55.21
67502;SHT30;54349;52.528;19.760;2022-07-23T02:15:32;22.59;55.08
67502;SHT30;54349;52.528;19.760;2022-07-23T02:18:01;22.43;54.91
67502;SHT30;54349;52.528;19.760;2022-07-23T02:20:31;22.26;54.76
67502;SHT30;54349;52.528;19.760;2022-07-23T02:22:59;22.16;55.20
67502;SHT30;54349;52.528;19.760;2022-07-23T02:25:28;22.26;55.41
67502;SHT30;54349;52.528;19.760;2022-07-23T02:28:00;22.42;55.25
67502;SHT30;54349;52.528;19.760;2022-07-23T02:30:28;22.56;55.12
67502;SHT30;54349;52.528;19.760;2022-07-23T02:32:57;22.55;54.96
67502;SHT30;54349;52.528;19.760;2022-07-23T02:35:25;22.38;54.78
67502;SHT30;54349;52.528;19.760;2022-07-23T02:37:54;22.19;54.75
67502;SHT30;54349;52.528;19.760;2022-07-23T02:40:22;22.17;55.40
67502;SHT30;54349;52.528;19.760;2022-07-23T02:42:50;22.31;55.33
67502;SHT30;54349;52.528;19.760;2022-07-23T02:45:18;22.46;55.20
67502;SHT30;54349;52.528;19.760;2022-07-23T02:47:47;22.58;55.01
67502;SHT30;54349;52.528;19.760;2022-07-23T02:50:15;22.50;54.73
67502;SHT30;54349;52.528;19.760;2022-07-23T02:52:43;22.32;54.87
67502;SHT30;54349;52.528;19.760;2022-07-23T02:55:12;22.32;55.36
67502;SHT30;54349;52.528;19.760;2022-07-23T02:57:40;22.46;55.24
67502;SHT30;54349;52.528;19.760;2022-07-23T03:00:09;22.60;55.09
67502;SHT30;54349;52.528;19.760;2022-07-23T03:02:38;22.60;54.67
67502;SHT30;54349;52.528;19.760;2022-07-23T03:05:07;22.42;54.46
67502;SHT30;54349;52.528;19.760;2022-07-23T03:07:36;22.24;54.64
67502;SHT30;54349;52.528;19.760;2022-07-23T03:10:04;22.27;55.19
67502;SHT30;54349;52.528;19.760;2022-07-23T03:12:33;22.43;55.07
67502;SHT30;54349;52.528;19.760;2022-07-23T03:15:03;22.58;54.97
67502;SHT30;54349;52.528;19.760;2022-07-23T03:17:31;22.61;54.62
67502;SHT30;54349;52.528;19.760;2022-07-23T03:20:00;22.45;54.37
67502;SHT30;54349;52.528;19.760;2022-07-23T03:22:28;22.27;54.33
67502;SHT30;54349;52.528;19.760;2022-07-23T03:24:57;22.21;55.14
67502;SHT30;54349;52.528;19.760;2022-07-23T03:27:32;22.35;55.11
67502;SHT30;54349;52.528;19.760;2022-07-23T03:30:00;22.50;54.99
67502;SHT30;54349;52.528;19.760;2022-07-23T03:32:28;22.62;54.90
67502;SHT30;54349;52.528;19.760;2022-07-23T03:34:56;22.52;54.54
67502;SHT30;54349;52.528;19.760;2022-07-23T03:37:26;22.34;54.65
67502;SHT30;54349;52.528;19.760;2022-07-23T03:39:57;22.33;55.26
67502;SHT30;54349;52.528;19.760;2022-07-23T03:42:25;22.46;55.20
67502;SHT30;54349;52.528;19.760;2022-07-23T03:44:53;22.60;55.02
67502;SHT30;54349;52.528;19.760;2022-07-23T03:47:21;22.65;54.73
67502;SHT30;54349;52.528;19.760;2022-07-23T03:49:49;22.51;54.41
67502;SHT30;54349;52.528;19.760;2022-07-23T03:52:17;22.33;54.66
67502;SHT30;54349;52.528;19.760;2022-07-23T03:54:45;22.34;55.15
67502;SHT30;54349;52.528;19.760;2022-07-23T03:57:13;22.47;55.08
67502;SHT30;54349;52.528;19.760;2022-07-23T03:59:41;22.61;54.97
67502;SHT30;54349;52.528;19.760;2022-07-23T04:02:09;22.64;54.63
67502;SHT30;54349;52.528;19.760;2022-07-23T04:04:38;22.48;54.37
67502;SHT30;54349;52.528;19.760;2022-07-23T04:07:06;22.30;54.72
67502;SHT30;54349;52.528;19.760;2022-07-23T04:09:35;22.32;55.20
67502;SHT30;54349;52.528;19.760;2022-07-23T04:12:03;22.46;55.10
67502;SHT30;54349;52.528;19.760;2022-07-23T04:14:32;22.60;54.97
67502;SHT30;54349;52.528;19.760;2022-07-23T04:17:01;22.63;54.63
67502;SHT30;54349;52.528;19.760;2022-07-23T04:19:31;22.46;54.37
67502;SHT30;54349;52.528;19.760;2022-07-23T04:22:03;22.30;54.79
67502;SHT30;54349;52.528;19.760;2022-07-23T04:24:32;22.36;55.16
67502;SHT30;54349;52.528;19.760;2022-07-23T04:27:01;22.51;55.06
67502;SHT30;54349;52.528;19.760;2022-07-23T04:29:31;22.64;54.91
67502;SHT30;54349;52.528;19.760;2022-07-23T04:31:59;22.60;54.59
67502;SHT30;54349;52.528;19.760;2022-07-23T04:34:29;22.41;54.38
67502;SHT30;54349;52.528;19.760;2022-07-23T04:36:58;22.30;55.10
67502;SHT30;54349;52.528;19.760;2022-07-23T04:39:27;22.41;55.20
67502;SHT30;54349;52.528;19.760;2022-07-23T04:41:55;22.54;55.06
67502;SHT30;54349;52.528;19.760;2022-07-23T04:44:23;22.65;54.94
67502;SHT30;54349;52.528;19.760;2022-07-23T04:46:52;22.58;54.61
67502;SHT30;54349;52.528;19.760;2022-07-23T04:49:20;22.38;54.47
67502;SHT30;54349;52.528;19.760;2022-07-23T04:51:48;22.25;55.09
67502;SHT30;54349;52.528;19.760;2022-07-23T04:54:16;22.33;55.30
67502;SHT30;54349;52.528;19.760;2022-07-23T04:56:45;22.48;55.21
67502;SHT30;54349;52.528;19.760;2022-07-23T04:59:13;22.60;55.07
67502;SHT30;54349;52.528;19.760;2022-07-23T05:01:42;22.58;54.83
67502;SHT30;54349;52.528;19.760;2022-07-23T05:04:10;22.39;54.65
67502;SHT30;54349;52.528;19.760;2022-07-23T05:06:39;22.28;55.34
67502;SHT30;54349;52.528;19.760;2022-07-23T05:09:07;22.39;55.40
67502;SHT30;54349;52.528;19.760;2022-07-23T05:11:35;22.54;55.28
67502;SHT30;54349;52.528;19.760;2022-07-23T05:14:04;22.64;55.16
67502;SHT30;54349;52.528;19.760;2022-07-23T05:16:32;22.55;54.92
67502;SHT30;54349;52.528;19.760;2022-07-23T05:19:05;22.36;54.73
67502;SHT30;54349;52.528;19.760;2022-07-23T05:21:34;22.20;55.09
67502;SHT30;54349;52.528;19.760;2022-07-23T05:24:04;22.28;55.49
67502;SHT30;54349;52.528;19.760;2022-07-23T05:26:32;22.43;55.39
67502;SHT30;54349;52.528;19.760;2022-07-23T05:29:01;22.58;55.25
67502;SHT30;54349;52.528;19.760;2022-07-23T05:31:30;22.59;55.25
67502;SHT30;54349;52.528;19.760;2022-07-23T05:33:59;22.42;55.11
67502;SHT30;54349;52.528;19.760;2022-07-23T05:36:27;22.26;55.13
67502;SHT30;54349;52.528;19.760;2022-07-23T05:38:57;22.24;55.65
67502;SHT30;54349;52.528;19.760;2022-07-23T05:41:28;22.37;55.55
67502;SHT30;54349;52.528;19.760;2022-07-23T05:43:56;22.52;55.36
67502;SHT30;54349;52.528;19.760;2022-07-23T05:46:25;22.62;55.41
67502;SHT30;54349;52.528;19.760;2022-07-23T05:48:57;22.53;55.29
67502;SHT30;54349;52.528;19.760;2022-07-23T05:51:44;22.32;55.04
67502;SHT30;54349;52.528;19.760;2022-07-23T05:54:13;22.15;55.05
67502;SHT30;54349;52.528;19.760;2022-07-23T05:56:41;22.17;55.69
67502;SHT30;54349;52.528;19.760;2022-07-23T05:59:09;22.33;55.53
67502;SHT30;54349;52.528;19.760;2022-07-23T06:01:39;22.48;55.30
67502;SHT30;54349;52.528;19.760;2022-07-23T06:04:10;22.58;55.55
67502;SHT30;54349;52.528;19.760;2022-07-23T06:06:42;22.47;55.62
67502;SHT30;54349;52.528;19.760;2022-07-23T06:09:11;22.30;55.47
67502;SHT30;54349;52.528;19.760;2022-07-23T06:11:41;22.16;55.42
67502;SHT30;54349;52.528;19.760;2022-07-23T06:14:09;22.19;55.80
67502;SHT30;54349;52.528;19.760;2022-07-23T06:16:51;22.35;55.68
67502;SHT30;54349;52.528;19.760;2022-07-23T06:19:19;22.51;55.48
67502;SHT30;54349;52.528;19.760;2022-07-23T06:21:47;22.57;55.80
67502;SHT30;54349;52.528;19.760;2022-07-23T06:24:16;22.44;55.76
67502;SHT30;54349;52.528;19.760;2022-07-23T06:26:45;22.27;55.56
67502;SHT30;54349;52.528;19.760;2022-07-23T06:29:14;22.12;55.20
67502;SHT30;54349;52.528;19.760;2022-07-23T06:31:42;22.09;55.89
67502;SHT30;54349;52.528;19.760;2022-07-23T06:34:11;22.23;55.83
67502;SHT30;54349;52.528;19.760;2022-07-23T06:36:39;22.40;55.67
67502;SHT30;54349;52.528;19.760;2022-07-23T06:39:09;22.54;55.84
67502;SHT30;54349;52.528;19.760;2022-07-23T06:41:37;22.53;56.24
67502;SHT30;54349;52.528;19.760;2022-07-23T06:44:05;22.38;56.15
67502;SHT30;54349;52.528;19.760;2022-07-23T06:46:34;22.22;55.68
67502;SHT30;54349;52.528;19.760;2022-07-23T06:49:03;22.09;55.66
67502;SHT30;54349;52.528;19.760;2022-07-23T06:51:33;22.14;56.20
67502;SHT30;54349;52.528;19.760;2022-07-23T06:54:02;22.29;56.11
67502;SHT30;54349;52.528;19.760;2022-07-23T06:56:31;22.45;56.00
67502;SHT30;54349;52.528;19.760;2022-07-23T06:58:59;22.58;56.36
67502;SHT30;54349;52.528;19.760;2022-07-23T07:01:28;22.50;56.70
67502;SHT30;54349;52.528;19.760;2022-07-23T07:03:57;22.34;56.49
67502;SHT30;54349;52.528;19.760;2022-07-23T07:06:26;22.20;55.92
67502;SHT30;54349;52.528;19.760;2022-07-23T07:08:54;22.07;56.12
67502;SHT30;54349;52.528;19.760;2022-07-23T07:11:23;22.12;56.69
67502;SHT30;54349;52.528;19.760;2022-07-23T07:13:52;22.28;56.56
67502;SHT30;54349;52.528;19.760;2022-07-23T07:16:20;22.45;56.24
67502;SHT30;54349;52.528;19.760;2022-07-23T07:18:49;22.60;56.46
67502;SHT30;54349;52.528;19.760;2022-07-23T07:21:16;22.59;57.04
67502;SHT30;54349;52.528;19.760;2022-07-23T07:23:45;22.43;56.97
67502;SHT30;54349;52.528;19.760;2022-07-23T07:26:13;22.26;56.55
67502;SHT30;54349;52.528;19.760;2022-07-23T07:28:41;22.12;55.90
67502;SHT30;54349;52.528;19.760;2022-07-23T07:31:09;22.03;56.43
67502;SHT30;54349;52.528;19.760;2022-07-23T07:33:37;22.12;56.87
67502;SHT30;54349;52.528;19.760;2022-07-23T07:36:05;22.29;57.12
67502;SHT30;54349;52.528;19.760;2022-07-23T07:38:34;22.32;57.78
67502;SHT30;54349;52.528;19.760;2022-07-23T07:41:02;22.17;57.68
67502;SHT30;54349;52.528;19.760;2022-07-23T07:43:30;22.07;57.90
67502;SHT30;54349;52.528;19.760;2022-07-23T07:45:58;21.99;57.33
67502;SHT30;54349;52.528;19.760;2022-07-23T07:48:26;21.92;58.49
67502;SHT30;54349;52.528;19.760;2022-07-23T07:50:55;21.88;58.72
67502;SHT30;54349;52.528;19.760;2022-07-23T07:53:24;21.96;59.75
67502;SHT30;54349;52.528;19.760;2022-07-23T07:55:52;22.15;59.77
67502;SHT30;54349;52.528;19.760;2022-07-23T07:58:20;22.28;61.11
67502;SHT30;54349;52.528;19.760;2022-07-23T08:00:49;22.26;61.10
67502;SHT30;54349;52.528;19.760;2022-07-23T08:03:17;22.16;60.28
67502;SHT30;54349;52.528;19.760;2022-07-23T08:05:46;22.05;59.09
67502;SHT30;54349;52.528;19.760;2022-07-23T08:08:14;21.95;59.16
67502;SHT30;54349;52.528;19.760;2022-07-23T08:10:43;22.04;60.03
67502;SHT30;54349;52.528;19.760;2022-07-23T08:13:15;22.23;60.01
67502;SHT30;54349;52.528;19.760;2022-07-23T08:15:44;22.32;60.49
67502;SHT30;54349;52.528;19.760;2022-07-23T08:18:13;22.26;60.10
67502;SHT30;54349;52.528;19.760;2022-07-23T08:20:41;22.14;59.35
67502;SHT30;54349;52.528;19.760;2022-07-23T08:23:09;22.04;58.30
67502;SHT30;54349;52.528;19.760;2022-07-23T08:25:38;21.93;58.30
67502;SHT30;54349;52.528;19.760;2022-07-23T08:28:10;22.02;59.01
67502;SHT30;54349;52.528;19.760;2022-07-23T08:30:42;22.19;58.81
67502;SHT30;54349;52.528;19.760;2022-07-23T08:33:13;22.34;59.61
67502;SHT30;54349;52.528;19.760;2022-07-23T08:35:57;22.31;59.53
67502;SHT30;54349;52.528;19.760;2022-07-23T08:38:26;22.18;58.88
67502;SHT30;54349;52.528;19.760;2022-07-23T08:40:56;22.08;57.94
67502;SHT30;54349;52.528;19.760;2022-07-23T08:43:29;22.02;58.54
67502;SHT30;54349;52.528;19.760;2022-07-23T08:46:00;22.16;58.79
67502;SHT30;54349;52.528;19.760;2022-07-23T08:48:33;22.33;59.02
67502;SHT30;54349;52.528;19.760;2022-07-23T08:51:06;22.39;59.64
67502;SHT30;54349;52.528;19.760;2022-07-23T08:53:37;22.30;59.23
67502;SHT30;54349;52.528;19.760;2022-07-23T08:56:06;22.19;58.22
67502;SHT30;54349;52.528;19.760;2022-07-23T08:58:36;22.06;57.53
67502;SHT30;54349;52.528;19.760;2022-07-23T09:01:05;21.97;58.12
67502;SHT30;54349;52.528;19.760;2022-07-23T09:03:34;22.09;58.44
67502;SHT30;54349;52.528;19.760;2022-07-23T09:06:06;22.27;58.21
67502;SHT30;54349;52.528;19.760;2022-07-23T09:08:38;22.38;58.59
67502;SHT30;54349;52.528;19.760;2022-07-23T09:11:09;22.30;58.94
67502;SHT30;54349;52.528;19.760;2022-07-23T09:13:42;22.20;58.16
67502;SHT30;54349;52.528;19.760;2022-07-23T09:16:19;22.09;57.20
67502;SHT30;54349;52.528;19.760;2022-07-23T09:18:53;22.00;57.82
67502;SHT30;54349;52.528;19.760;2022-07-23T09:26:38;22.42;59.30
67502;SHT30;54349;52.528;19.760;2022-07-23T09:36:56;22.08;57.36
67502;SHT30;54349;52.528;19.760;2022-07-23T09:39:35;22.14;58.04
67502;SHT30;54349;52.528;19.760;2022-07-23T09:42:14;22.33;57.98
67502;SHT30;54349;52.528;19.760;2022-07-23T09:44:43;22.49;59.38
67502;SHT30;54349;52.528;19.760;2022-07-23T09:47:16;22.51;59.30
67502;SHT30;54349;52.528;19.760;2022-07-23T09:50:08;22.47;58.57
67502;SHT30;54349;52.528;19.760;2022-07-23T09:52:49;22.40;57.30
67502;SHT30;54349;52.528;19.760;2022-07-23T09:55:17;22.24;56.69
67502;SHT30;54349;52.528;19.760;2022-07-23T09:57:47;22.18;57.64
67502;SHT30;54349;52.528;19.760;2022-07-23T10:00:19;22.33;57.88
67502;SHT30;54349;52.528;19.760;2022-07-23T10:02:47;22.52;58.47
67502;SHT30;54349;52.528;19.760;2022-07-23T10:05:27;22.60;59.34
67502;SHT30;54349;52.528;19.760;2022-07-23T10:08:17;22.58;58.71
67502;SHT30;54349;52.528;19.760;2022-07-23T10:11:08;22.55;57.76
67502;SHT30;54349;52.528;19.760;2022-07-23T10:13:55;22.46;56.77
67502;SHT30;54349;52.528;19.760;2022-07-23T10:16:37;22.30;56.22
67502;SHT30;54349;52.528;19.760;2022-07-23T10:19:06;22.22;57.17
67502;SHT30;54349;52.528;19.760;2022-07-23T10:21:48;22.37;57.31
67502;SHT30;54349;52.528;19.760;2022-07-23T10:24:24;22.58;58.05
67502;SHT30;54349;52.528;19.760;2022-07-23T10:36:23;22.43;56.15
67502;SHT30;54349;52.528;19.760;2022-07-23T10:41:43;22.29;57.20
67502;SHT30;54349;52.528;19.760;2022-07-23T10:47:00;22.67;58.25
67502;SHT30;54349;52.528;19.760;2022-07-23T10:58:02;22.32;56.04
67502;SHT30;54349;52.528;19.760;2022-07-23T11:00:34;22.38;56.90
67502;SHT30;54349;52.528;19.760;2022-07-23T11:03:05;22.58;57.08
67502;SHT30;54349;52.528;19.760;2022-07-23T11:05:57;22.76;57.81
67502;SHT30;54349;52.528;19.760;2022-07-23T11:08:27;22.75;58.01
67502;SHT30;54349;52.528;19.760;2022-07-23T11:11:16;22.73;56.66
67502;SHT30;54349;52.528;19.760;2022-07-23T11:13:44;22.60;55.18
67502;SHT30;54349;52.528;19.760;2022-07-23T11:16:15;22.45;55.46
67502;SHT30;54349;52.528;19.760;2022-07-23T11:18:54;22.36;55.94
67502;SHT30;54349;52.528;19.760;2022-07-23T11:24:00;22.70;56.93
67502;SHT30;54349;52.528;19.760;2022-07-23T11:34:51;22.41;53.94
67502;SHT30;54349;52.528;19.760;2022-07-23T11:37:29;22.46;55.28
67502;SHT30;54349;52.528;19.760;2022-07-23T11:40:07;22.70;55.61
67502;SHT30;54349;52.528;19.760;2022-07-23T11:42:40;22.88;56.80
67502;SHT30;54349;52.528;19.760;2022-07-23T11:45:21;22.87;55.75
67502;SHT30;54349;52.528;19.760;2022-07-23T11:47:52;22.74;54.45
67502;SHT30;54349;52.528;19.760;2022-07-23T11:50:22;22.58;53.60
67502;SHT30;54349;52.528;19.760;2022-07-23T11:52:53;22.56;55.03
67502;SHT30;54349;52.528;19.760;2022-07-23T11:55:24;22.76;55.22
67502;SHT30;54349;52.528;19.760;2022-07-23T11:57:52;22.94;56.66
67502;SHT30;54349;52.528;19.760;2022-07-23T12:00:22;22.97;55.93
67502;SHT30;54349;52.528;19.760;2022-07-23T12:03:01;22.89;54.68
67502;SHT30;54349;52.528;19.760;2022-07-23T12:05:35;22.71;53.12
67502;SHT30;54349;52.528;19.760;2022-07-23T12:08:07;22.56;53.86
67502;SHT30;54349;52.528;19.760;2022-07-23T12:10:39;22.68;54.80
67502;SHT30;54349;52.528;19.760;2022-07-23T12:13:20;22.91;55.81
67502;SHT30;54349;52.528;19.760;2022-07-23T12:15:51;22.99;55.94
67502;SHT30;54349;52.528;19.760;2022-07-23T12:18:25;22.91;54.80
67502;SHT30;54349;52.528;19.760;2022-07-23T12:20:56;22.73;53.32
67502;SHT30;54349;52.528;19.760;2022-07-23T12:23:31;22.53;53.22
67502;SHT30;54349;52.528;19.760;2022-07-23T12:26:00;22.58;54.52
67502;SHT30;54349;52.528;19.760;2022-07-23T12:28:31;22.77;54.89
67502;SHT30;54349;52.528;19.760;2022-07-23T12:31:00;22.90;56.14
67502;SHT30;54349;52.528;19.760;2022-07-23T12:33:30;22.83;55.01
67502;SHT30;54349;52.528;19.760;2022-07-23T12:36:08;22.65;53.81
67502;SHT30;54349;52.528;19.760;2022-07-23T12:38:44;22.47;53.33
67502;SHT30;54349;52.528;19.760;2022-07-23T12:41:16;22.42;54.81
67502;SHT30;54349;52.528;19.760;2022-07-23T12:43:46;22.60;54.89
67502;SHT30;54349;52.528;19.760;2022-07-23T12:46:17;22.77;56.36
67502;SHT30;54349;52.528;19.760;2022-07-23T12:51:29;22.70;56.21
67502;SHT30;54349;52.528;19.760;2022-07-23T12:54:07;22.61;55.43
67502;SHT30;54349;52.528;19.760;2022-07-23T12:56:38;22.49;54.88
67502;SHT30;54349;52.528;19.760;2022-07-23T12:59:14;22.34;54.81
67502;SHT30;54349;52.528;19.760;2022-07-23T13:01:53;22.25;55.66
67502;SHT30;54349;52.528;19.760;2022-07-23T13:04:25;22.42;56.11
67502;SHT30;54349;52.528;19.760;2022-07-23T13:06:55;22.60;57.69
67502;SHT30;54349;52.528;19.760;2022-07-23T13:09:32;22.65;58.29
67502;SHT30;54349;52.528;19.760;2022-07-23T13:12:09;22.61;57.57
67502;SHT30;54349;52.528;19.760;2022-07-23T13:14:38;22.54;56.73
67502;SHT30;54349;52.528;19.760;2022-07-23T13:17:08;22.43;56.12
67502;SHT30;54349;52.528;19.760;2022-07-23T13:19:36;22.30;55.95
67502;SHT30;54349;52.528;19.760;2022-07-23T13:22:04;22.19;56.18
67502;SHT30;54349;52.528;19.760;2022-07-23T13:24:36;22.27;57.48
67502;SHT30;54349;52.528;19.760;2022-07-23T13:27:06;22.48;58.23
67502;SHT30;54349;52.528;19.760;2022-07-23T13:29:55;22.53;58.52
67502;SHT30;54349;52.528;19.760;2022-07-23T13:32:23;22.44;57.91
67502;SHT30;54349;52.528;19.760;2022-07-23T13:34:52;22.33;56.88
67502;SHT30;54349;52.528;19.760;2022-07-23T13:37:20;22.19;56.07
67502;SHT30;54349;52.528;19.760;2022-07-23T13:39:51;22.14;57.09
67502;SHT30;54349;52.528;19.760;2022-07-23T13:42:20;22.31;57.32
67502;SHT30;54349;52.528;19.760;2022-07-23T13:44:50;22.52;57.16
67502;SHT30;54349;52.528;19.760;2022-07-23T13:47:18;22.70;57.18
67502;SHT30;54349;52.528;19.760;2022-07-23T13:49:46;22.74;57.27
67502;SHT30;54349;52.528;19.760;2022-07-23T13:52:14;22.62;56.91
67502;SHT30;54349;52.528;19.760;2022-07-23T13:54:43;22.46;56.18
67502;SHT30;54349;52.528;19.760;2022-07-23T13:57:11;22.30;55.37
67502;SHT30;54349;52.528;19.760;2022-07-23T13:59:40;22.23;56.55
67502;SHT30;54349;52.528;19.760;2022-07-23T14:02:10;22.39;56.74
67502;SHT30;54349;52.528;19.760;2022-07-23T14:04:51;22.58;56.66
67502;SHT30;54349;52.528;19.760;2022-07-23T14:07:20;22.75;56.64
67502;SHT30;54349;52.528;19.760;2022-07-23T14:09:49;22.72;56.50
67502;SHT30;54349;52.528;19.760;2022-07-23T14:12:19;22.56;56.28
67502;SHT30;54349;52.528;19.760;2022-07-23T14:14:50;22.39;55.51
67502;SHT30;54349;52.528;19.760;2022-07-23T14:17:20;22.24;55.97
67502;SHT30;54349;52.528;19.760;2022-07-23T14:19:48;22.35;56.59
67502;SHT30;54349;52.528;19.760;2022-07-23T14:22:17;22.54;56.53
67502;SHT30;54349;52.528;19.760;2022-07-23T14:24:48;22.70;56.50
67502;SHT30;54349;52.528;19.760;2022-07-23T14:27:17;22.72;56.29
67502;SHT30;54349;52.528;19.760;2022-07-23T14:29:47;22.54;56.14
67502;SHT30;54349;52.528;19.760;2022-07-23T14:32:16;22.36;55.64
67502;SHT30;54349;52.528;19.760;2022-07-23T14:34:44;22.22;55.22
67502;SHT30;54349;52.528;19.760;2022-07-23T14:37:16;22.19;56.53
67502;SHT30;54349;52.528;19.760;2022-07-23T14:39:45;22.36;56.60
67502;SHT30;54349;52.528;19.760;2022-07-23T14:42:17;22.55;56.60
67502;SHT30;54349;52.528;19.760;2022-07-23T14:44:46;22.69;56.63
67502;SHT30;54349;52.528;19.760;2022-07-23T14:47:14;22.63;56.40
67502;SHT30;54349;52.528;19.760;2022-07-23T14:49:48;22.46;56.19
67502;SHT30;54349;52.528;19.760;2022-07-23T14:52:17;22.30;55.46
67502;SHT30;54349;52.528;19.760;2022-07-23T14:54:46;22.17;55.86
67502;SHT30;54349;52.528;19.760;2022-07-23T14:57:16;22.25;56.67
67502;SHT30;54349;52.528;19.760;2022-07-23T14:59:51;22.44;56.61
67502;SHT30;54349;52.528;19.760;2022-07-23T15:02:21;22.61;56.59
67502;SHT30;54349;52.528;19.760;2022-07-23T15:04:50;22.68;56.48
67502;SHT30;54349;52.528;19.760;2022-07-23T15:07:18;22.55;56.24
67502;SHT30;54349;52.528;19.760;2022-07-23T15:09:47;22.38;55.89
67502;SHT30;54349;52.528;19.760;2022-07-23T15:12:16;22.23;55.35
67502;SHT30;54349;52.528;19.760;2022-07-23T15:14:49;22.20;56.53
67502;SHT30;54349;52.528;19.760;2022-07-23T15:17:19;22.35;56.68
67502;SHT30;54349;52.528;19.760;2022-07-23T15:19:48;22.53;56.64
67502;SHT30;54349;52.528;19.760;2022-07-23T15:22:18;22.66;56.68
67502;SHT30;54349;52.528;19.760;2022-07-23T15:24:48;22.57;56.46
67502;SHT30;54349;52.528;19.760;2022-07-23T15:27:17;22.41;56.27
67502;SHT30;54349;52.528;19.760;2022-07-23T15:29:46;22.24;55.53
67502;SHT30;54349;52.528;19.760;2022-07-23T15:32:19;22.16;58.74
67502;SHT30;54349;52.528;19.760;2022-07-23T15:34:49;22.28;66.01
67502;SHT30;54349;52.528;19.760;2022-07-23T15:37:20;22.59;68.73
67502;SHT30;54349;52.528;19.760;2022-07-23T15:39:52;22.85;67.95
67502;SHT30;54349;52.528;19.760;2022-07-23T15:42:21;22.89;65.97
67502;SHT30;54349;52.528;19.760;2022-07-23T15:44:49;22.87;65.60
67502;SHT30;54349;52.528;19.760;2022-07-23T15:47:17;22.86;65.21
67502;SHT30;54349;52.528;19.760;2022-07-23T15:49:47;22.88;64.90
67502;SHT30;54349;52.528;19.760;2022-07-23T15:52:15;22.87;64.92
67502;SHT30;54349;52.528;19.760;2022-07-23T15:54:48;22.85;64.88
67502;SHT30;54349;52.528;19.760;2022-07-23T15:57:17;22.84;64.67
67502;SHT30;54349;52.528;19.760;2022-07-23T15:59:48;22.82;64.33
67502;SHT30;54349;52.528;19.760;2022-07-23T16:02:17;22.80;64.03
67502;SHT30;54349;52.528;19.760;2022-07-23T16:04:49;22.77;63.97
67502;SHT30;54349;52.528;19.760;2022-07-23T16:07:19;22.76;63.76
67502;SHT30;54349;52.528;19.760;2022-07-23T16:09:48;22.76;63.81
67502;SHT30;54349;52.528;19.760;2022-07-23T16:12:17;22.77;63.74
67502;SHT30;54349;52.528;19.760;2022-07-23T16:14:46;22.76;63.48
67502;SHT30;54349;52.528;19.760;2022-07-23T16:17:14;22.75;63.47
67502;SHT30;54349;52.528;19.760;2022-07-23T16:19:43;22.76;63.42
67502;SHT30;54349;52.528;19.760;2022-07-23T16:22:13;22.75;63.51
67502;SHT30;54349;52.528;19.760;2022-07-23T16:24:43;22.75;63.41